Terminal Aerodrome Forecast
Issued by NWS Pocatello, ID

Current Version | Previous Version | Text Only | Print | Product List | Glossary On
Versions: 1 2 3 4 5 6 7 8 9 10 11 12 13 14 15 16 17
000
FTUS45 KPIH 162300
TAFPIH
TAF
KPIH 162325Z 1700/1724 24012KT P6SM SCT100
     FM170200 VRB06KT P6SM SCT100
     FM171700 23014KT P6SM SCT150=

USA.gov is the U.S. government's official web portal to all federal, state and local government web resources and services.